createdAt,value
2022-10-19T00:00:50.932Z,18.10
2022-10-19T00:03:20.740Z,13.38
2022-10-19T00:05:49.725Z,10.52
2022-10-19T00:08:16.283Z,11.98
2022-10-19T00:10:42.913Z,12.23
2022-10-19T00:13:09.473Z,12.07
2022-10-19T00:15:40.316Z,13.30
2022-10-19T00:18:07.830Z,10.63
2022-10-19T00:20:35.989Z,11.43
2022-10-19T00:23:02.621Z,10.70
2022-10-19T00:25:29.389Z,11.05
2022-10-19T00:27:55.923Z,11.35
2022-10-19T00:30:22.533Z,10.27
2022-10-19T00:32:49.104Z,10.77
2022-10-19T00:35:15.656Z,11.15
2022-10-19T00:37:42.254Z,10.18
2022-10-19T00:40:09.576Z,11.10
2022-10-19T00:42:36.281Z,10.55
2022-10-19T00:45:11.380Z,10.07
2022-10-19T00:47:38.585Z,11.68
2022-10-19T00:50:05.743Z,12.48
2022-10-19T00:52:32.697Z,11.73
2022-10-19T00:55:00.052Z,12.55
2022-10-19T00:57:29.593Z,10.73
2022-10-19T00:59:57.638Z,11.85
2022-10-19T01:02:24.331Z,11.77
2022-10-19T01:04:52.308Z,12.32
2022-10-19T01:07:20.184Z,12.02
2022-10-19T01:09:46.811Z,10.98
2022-10-19T01:12:36.879Z,12.13
2022-10-19T01:15:47.118Z,12.15
2022-10-19T01:18:25.700Z,12.23
2022-10-19T01:21:14.135Z,13.50
2022-10-19T01:24:13.104Z,11.93
2022-10-19T01:26:54.103Z,13.10
2022-10-19T01:29:58.120Z,12.23
2022-10-19T01:32:52.291Z,11.85
2022-10-19T01:35:40.443Z,13.30
2022-10-19T01:38:12.750Z,14.40
2022-10-19T01:40:50.999Z,14.00
2022-10-19T01:43:23.460Z,12.52
2022-10-19T01:45:59.199Z,14.75
2022-10-19T01:48:30.766Z,12.13
2022-10-19T01:51:05.533Z,11.68
2022-10-19T01:53:38.517Z,11.70
2022-10-19T01:56:06.888Z,11.57
2022-10-19T01:58:36.857Z,11.82
2022-10-19T02:01:07.175Z,11.57
2022-10-19T02:03:34.994Z,13.95
2022-10-19T02:06:06.335Z,14.95
2022-10-19T02:08:54.113Z,15.88
2022-10-19T02:11:22.511Z,15.20
2022-10-19T02:13:56.708Z,15.88
2022-10-19T02:16:32.572Z,15.65
2022-10-19T02:19:01.973Z,15.38
2022-10-19T02:21:28.891Z,14.35
2022-10-19T02:23:55.449Z,14.02
2022-10-19T02:26:22.538Z,15.95
2022-10-19T02:28:49.963Z,21.23
2022-10-19T02:31:16.960Z,14.13
2022-10-19T02:33:43.628Z,14.27
2022-10-19T02:36:10.200Z,12.98
2022-10-19T02:38:36.991Z,13.02
2022-10-19T02:41:16.251Z,13.00
2022-10-19T02:43:48.071Z,13.68
2022-10-19T02:49:13.433Z,12.15
2022-10-19T02:52:03.277Z,12.05
2022-10-19T02:54:30.177Z,13.73
2022-10-19T02:56:57.185Z,13.32
2022-10-19T02:59:24.377Z,12.60
2022-10-19T03:01:51.269Z,17.55
2022-10-19T03:04:18.574Z,15.63
2022-10-19T03:06:45.168Z,16.00
2022-10-19T03:09:11.813Z,14.52
2022-10-19T03:11:38.755Z,16.98
2022-10-19T03:14:05.515Z,15.88
2022-10-19T03:16:32.118Z,15.43
2022-10-19T03:18:58.637Z,15.63
2022-10-19T03:21:25.332Z,14.40
2022-10-19T03:23:51.869Z,16.05
2022-10-19T03:26:18.537Z,16.95
2022-10-19T03:28:45.211Z,14.95
2022-10-19T03:31:11.995Z,16.05
2022-10-19T03:33:38.677Z,16.13
2022-10-19T03:36:16.008Z,16.45
2022-10-19T03:38:42.561Z,16.13
2022-10-19T03:41:09.724Z,16.35
2022-10-19T03:43:36.365Z,15.50
2022-10-19T03:46:03.008Z,15.88
2022-10-19T03:48:29.553Z,15.40
2022-10-19T03:51:01.406Z,15.98
2022-10-19T03:53:28.060Z,16.05
2022-10-19T03:56:01.088Z,14.55
2022-10-19T03:58:27.717Z,16.00
2022-10-19T04:00:54.314Z,14.45
2022-10-19T04:03:20.888Z,15.68
2022-10-19T04:05:47.431Z,18.13
2022-10-19T04:08:13.975Z,17.55
2022-10-19T04:10:40.613Z,15.32
2022-10-19T04:13:07.261Z,14.35
2022-10-19T04:15:33.847Z,15.93
2022-10-19T04:18:00.418Z,16.08
2022-10-19T04:20:27.223Z,15.25
2022-10-19T04:22:53.865Z,16.55
2022-10-19T04:25:20.522Z,15.25
2022-10-19T04:27:47.109Z,15.35
2022-10-19T04:30:13.667Z,17.23
2022-10-19T04:32:40.206Z,16.30
2022-10-19T04:35:07.536Z,17.08
2022-10-19T04:37:34.347Z,15.52
2022-10-19T04:40:01.138Z,16.10
2022-10-19T04:42:27.745Z,17.73
2022-10-19T04:44:54.292Z,15.88
2022-10-19T04:47:20.853Z,17.35
2022-10-19T04:49:47.468Z,17.60
2022-10-19T04:52:14.077Z,16.45
2022-10-19T04:54:40.693Z,18.48
2022-10-19T04:57:07.333Z,15.45
2022-10-19T04:59:33.887Z,15.45
2022-10-19T05:02:00.452Z,16.75
2022-10-19T05:04:27.028Z,15.50
2022-10-19T05:06:53.569Z,17.35
2022-10-19T05:09:20.149Z,14.45
2022-10-19T05:11:50.110Z,16.52
2022-10-19T05:14:16.896Z,14.18
2022-10-19T05:16:43.517Z,14.30
2022-10-19T05:19:14.132Z,15.23
2022-10-19T05:21:40.749Z,13.63
2022-10-19T05:24:07.347Z,13.80
2022-10-19T05:26:34.006Z,15.90
2022-10-19T05:29:04.734Z,15.50
2022-10-19T05:31:33.266Z,12.98
2022-10-19T05:34:00.839Z,16.52
2022-10-19T05:36:39.090Z,14.68
2022-10-19T05:39:12.114Z,13.48
2022-10-19T05:41:38.754Z,15.10
2022-10-19T05:44:05.769Z,14.80
2022-10-19T05:46:33.785Z,12.77
2022-10-19T05:49:00.406Z,12.32
2022-10-19T05:51:27.853Z,15.50
2022-10-19T05:53:55.704Z,13.77
2022-10-19T05:56:25.808Z,15.30
2022-10-19T05:58:52.955Z,15.13
2022-10-19T06:01:20.249Z,15.20
2022-10-19T06:03:47.874Z,14.50
2022-10-19T06:06:14.435Z,14.68
2022-10-19T06:08:41.033Z,14.13
2022-10-19T06:11:40.623Z,14.05
2022-10-19T06:14:11.900Z,15.32
2022-10-19T06:16:38.816Z,15.00
2022-10-19T06:19:05.747Z,14.90
2022-10-19T06:21:33.910Z,16.58
2022-10-19T06:24:02.907Z,14.30
2022-10-19T06:26:30.933Z,16.05
2022-10-19T06:29:00.681Z,15.20
2022-10-19T06:31:28.861Z,14.63
2022-10-19T06:33:56.099Z,15.02
2022-10-19T06:36:25.778Z,14.35
2022-10-19T06:38:53.232Z,11.18
2022-10-19T06:41:20.727Z,14.05
2022-10-19T06:43:54.744Z,13.75
2022-10-19T06:46:23.670Z,12.43
2022-10-19T06:49:02.094Z,16.05
2022-10-19T06:51:30.986Z,14.60
2022-10-19T06:53:57.780Z,14.73
2022-10-19T06:56:25.409Z,16.80
2022-10-19T06:58:52.549Z,15.35
2022-10-19T07:01:19.213Z,15.60
2022-10-19T07:03:45.922Z,15.90
2022-10-19T07:06:13.691Z,14.98
2022-10-19T07:08:41.998Z,15.93
2022-10-19T07:11:11.526Z,17.17
2022-10-19T07:13:38.478Z,14.75
2022-10-19T07:16:15.911Z,14.80
2022-10-19T07:21:15.209Z,14.82
2022-10-19T07:23:43.612Z,15.38
2022-10-19T07:26:27.957Z,13.82
2022-10-19T07:28:56.869Z,15.57
2022-10-19T07:31:25.268Z,14.82
2022-10-19T07:34:00.421Z,15.15
2022-10-19T07:36:28.792Z,13.73
2022-10-19T07:38:55.555Z,14.65
2022-10-19T07:41:23.943Z,15.18
2022-10-19T07:43:51.884Z,14.57
2022-10-19T07:46:29.965Z,12.82
2022-10-19T07:48:56.504Z,14.90
2022-10-19T07:51:23.683Z,14.52
2022-10-19T07:53:50.592Z,14.35
2022-10-19T07:56:23.196Z,13.05
2022-10-19T07:58:51.268Z,13.05
2022-10-19T08:01:20.608Z,12.32
2022-10-19T08:06:35.206Z,11.20
2022-10-19T08:09:01.802Z,11.48
2022-10-19T08:11:32.094Z,10.93
2022-10-19T08:13:59.329Z,11.40
2022-10-19T08:16:45.463Z,10.77
2022-10-19T08:19:16.327Z,10.55
2022-10-19T08:21:47.121Z,11.10
2022-10-19T08:24:15.549Z,10.55
2022-10-19T08:26:43.091Z,11.15
2022-10-19T08:29:15.127Z,9.52
2022-10-19T08:31:43.248Z,9.00
2022-10-19T08:34:10.063Z,9.88
2022-10-19T08:36:37.186Z,9.30
2022-10-19T08:39:06.277Z,8.68
2022-10-19T08:41:41.421Z,8.18
2022-10-19T08:44:10.151Z,9.15
2022-10-19T08:46:55.433Z,9.63
2022-10-19T08:49:25.600Z,9.73
2022-10-19T08:51:58.393Z,10.03
2022-10-19T08:54:32.622Z,8.88
2022-10-19T08:57:38.695Z,9.07
2022-10-19T09:00:13.160Z,9.32
2022-10-19T09:02:42.650Z,9.10
2022-10-19T09:05:23.941Z,8.60
2022-10-19T09:07:53.876Z,9.45
2022-10-19T09:10:46.036Z,9.57
2022-10-19T09:13:23.026Z,9.70
2022-10-19T09:15:51.488Z,9.25
2022-10-19T09:18:23.285Z,8.35
2022-10-19T09:20:55.939Z,9.07
2022-10-19T09:23:36.933Z,8.75
2022-10-19T09:26:05.784Z,9.27
2022-10-19T09:28:55.646Z,7.22
2022-10-19T09:31:38.265Z,8.30
2022-10-19T09:34:28.428Z,7.70
2022-10-19T09:36:57.679Z,8.02
2022-10-19T09:39:30.114Z,8.27
2022-10-19T09:42:08.003Z,8.07
2022-10-19T09:44:34.790Z,7.32
2022-10-19T09:47:32.719Z,7.10
2022-10-19T09:50:29.917Z,7.20
2022-10-19T09:53:04.167Z,8.30
2022-10-19T09:55:51.394Z,8.00
2022-10-19T09:58:20.473Z,8.15
2022-10-19T10:00:54.459Z,7.57
2022-10-19T10:03:28.660Z,8.38
2022-10-19T10:06:10.810Z,8.27
2022-10-19T10:08:40.432Z,8.13
2022-10-19T10:11:15.282Z,8.52
2022-10-19T10:13:48.082Z,7.93
2022-10-19T10:21:59.110Z,7.65
2022-10-19T10:24:31.485Z,7.93
2022-10-19T10:27:01.182Z,7.40
2022-10-19T10:29:33.559Z,8.13
2022-10-19T10:32:36.827Z,8.00
2022-10-19T10:35:07.660Z,7.72
2022-10-19T10:37:37.371Z,7.90
2022-10-19T10:40:05.440Z,6.72
2022-10-19T10:42:41.468Z,7.07
2022-10-19T10:45:39.693Z,7.35
2022-10-19T10:48:14.998Z,7.53
2022-10-19T10:50:41.576Z,6.72
2022-10-19T10:53:43.214Z,7.10
2022-10-19T10:56:21.489Z,6.20
2022-10-19T10:59:19.782Z,5.75
2022-10-19T11:02:08.757Z,6.38
2022-10-19T11:04:42.297Z,5.53
2022-10-19T11:07:21.795Z,5.90
2022-10-19T11:10:02.612Z,6.28
2022-10-19T11:12:36.031Z,6.75
2022-10-19T11:15:48.623Z,7.18
2022-10-19T11:18:22.261Z,6.35
2022-10-19T11:20:58.288Z,6.78
2022-10-19T11:24:02.087Z,6.85
2022-10-19T11:26:55.855Z,6.47
2022-10-19T11:29:31.786Z,6.55
2022-10-19T11:31:58.620Z,6.57
2022-10-19T11:34:56.248Z,6.65
2022-10-19T11:37:49.812Z,6.10
2022-10-19T11:40:32.136Z,6.55
2022-10-19T11:43:30.975Z,5.78
2022-10-19T11:46:39.041Z,5.78
2022-10-19T11:49:20.494Z,4.90
2022-10-19T11:52:05.182Z,5.30
2022-10-19T11:54:44.603Z,5.72
2022-10-19T11:57:24.093Z,5.85
2022-10-19T12:00:38.042Z,5.38
2022-10-19T12:03:22.937Z,5.90
2022-10-19T12:05:58.513Z,4.88
2022-10-19T12:08:46.274Z,6.57
2022-10-19T12:12:01.224Z,5.93
2022-10-19T12:14:33.645Z,5.50
2022-10-19T12:17:07.572Z,5.43
2022-10-19T12:19:41.118Z,6.05
2022-10-19T12:22:15.318Z,6.28
2022-10-19T12:24:41.905Z,6.15
2022-10-19T12:27:13.702Z,5.88
2022-10-19T12:29:44.486Z,6.07
2022-10-19T12:32:15.394Z,6.40
2022-10-19T12:35:04.781Z,6.47
2022-10-19T12:38:12.441Z,6.13
2022-10-19T12:41:12.001Z,6.15
2022-10-19T12:43:53.986Z,6.50
2022-10-19T12:47:00.083Z,6.00
2022-10-19T12:49:30.467Z,6.18
2022-10-19T12:51:59.637Z,6.93
2022-10-19T12:54:32.559Z,6.70
2022-10-19T12:57:01.518Z,6.50
2022-10-19T12:59:32.213Z,6.75
2022-10-19T13:02:01.109Z,7.55
2022-10-19T13:04:30.062Z,7.15
2022-10-19T13:06:56.535Z,6.75
2022-10-19T13:09:25.740Z,7.40
2022-10-19T13:12:17.726Z,6.57
2022-10-19T13:14:59.475Z,6.65
2022-10-19T13:17:38.012Z,7.85
2022-10-19T13:20:13.693Z,6.68
2022-10-19T13:22:48.947Z,6.63
2022-10-19T13:25:35.470Z,7.28
2022-10-19T13:28:09.349Z,6.90
2022-10-19T13:30:36.017Z,6.85
2022-10-19T13:33:24.809Z,7.10
2022-10-19T13:36:00.368Z,7.43
2022-10-19T13:38:39.155Z,7.00
2022-10-19T13:41:28.625Z,6.63
2022-10-19T13:44:15.240Z,7.28
2022-10-19T13:46:44.560Z,7.88
2022-10-19T13:49:21.905Z,8.40
2022-10-19T13:52:07.756Z,7.72
2022-10-19T13:55:18.999Z,7.53
2022-10-19T14:00:24.115Z,8.27
2022-10-19T14:02:50.939Z,9.00
2022-10-19T14:08:41.072Z,10.50
2022-10-19T14:11:17.772Z,9.57
2022-10-19T14:13:44.749Z,9.18
2022-10-19T14:16:21.877Z,9.52
2022-10-19T14:18:56.650Z,9.95
2022-10-19T14:21:36.923Z,9.38
2022-10-19T14:24:20.139Z,9.57
2022-10-19T14:26:47.416Z,10.68
2022-10-19T14:29:14.002Z,9.82
2022-10-19T14:31:40.594Z,11.48
2022-10-19T14:34:09.320Z,9.90
2022-10-19T14:36:54.102Z,10.82
2022-10-19T14:39:30.472Z,11.63
2022-10-19T14:42:00.492Z,11.18
2022-10-19T14:44:32.440Z,11.02
2022-10-19T14:47:01.974Z,10.55
2022-10-19T14:49:28.619Z,11.07
2022-10-19T14:52:01.119Z,10.60
2022-10-19T14:54:36.584Z,11.82
2022-10-19T14:57:08.426Z,10.70
2022-10-19T14:59:47.136Z,10.38
2022-10-19T15:02:22.934Z,9.85
2022-10-19T15:04:51.089Z,9.73
2022-10-19T15:07:23.710Z,10.27
2022-10-19T15:09:59.483Z,10.38
2022-10-19T15:12:30.446Z,9.13
2022-10-19T15:17:31.908Z,9.93
2022-10-19T15:20:01.319Z,10.73
2022-10-19T15:22:31.253Z,10.00
2022-10-19T15:25:06.988Z,9.75
2022-10-19T15:27:39.731Z,9.98
2022-10-19T15:30:24.340Z,10.52
2022-10-19T15:32:54.654Z,9.70
2022-10-19T15:35:36.766Z,10.05
2022-10-19T15:38:26.613Z,9.25
2022-10-19T15:40:58.742Z,9.95
2022-10-19T15:43:34.253Z,9.35
2022-10-19T15:46:00.810Z,9.95
2022-10-19T15:48:50.014Z,8.95
2022-10-19T15:51:25.185Z,10.18
2022-10-19T15:53:56.209Z,9.10
2022-10-19T15:58:54.956Z,9.02
2022-10-19T16:01:26.662Z,9.35
2022-10-19T16:03:53.729Z,8.80
2022-10-19T16:06:24.919Z,9.27
2022-10-19T16:08:51.545Z,9.05
2022-10-19T16:11:21.050Z,9.45
2022-10-19T16:13:47.658Z,8.93
2022-10-19T16:16:24.120Z,10.48
2022-10-19T16:18:51.238Z,8.90
2022-10-19T16:21:19.163Z,9.15
2022-10-19T16:23:45.706Z,8.45
2022-10-19T16:26:15.289Z,8.48
2022-10-19T16:28:42.726Z,9.05
2022-10-19T16:31:10.208Z,8.95
2022-10-19T16:33:37.111Z,8.57
2022-10-19T16:36:07.929Z,9.00
2022-10-19T16:38:36.001Z,7.55
2022-10-19T16:41:05.302Z,8.40
2022-10-19T16:43:31.837Z,8.32
2022-10-19T16:45:58.422Z,8.85
2022-10-19T16:48:25.642Z,8.77
2022-10-19T16:51:07.402Z,8.57
2022-10-19T16:53:35.316Z,9.35
2022-10-19T16:56:06.984Z,9.35
2022-10-19T16:58:33.613Z,9.25
2022-10-19T17:01:05.869Z,8.25
2022-10-19T17:03:32.392Z,7.85
2022-10-19T17:06:02.512Z,8.23
2022-10-19T17:08:37.184Z,8.20
2022-10-19T17:11:24.107Z,8.27
2022-10-19T17:13:52.578Z,8.15
2022-10-19T17:16:21.123Z,8.20
2022-10-19T17:18:48.245Z,8.60
2022-10-19T17:21:20.772Z,8.98
2022-10-19T17:23:50.913Z,8.45
2022-10-19T17:26:17.580Z,8.05
2022-10-19T17:28:44.313Z,8.13
2022-10-19T17:31:14.612Z,8.50
2022-10-19T17:33:41.783Z,7.35
2022-10-19T17:36:12.963Z,7.32
2022-10-19T17:38:40.372Z,7.85
2022-10-19T17:41:12.526Z,7.53
2022-10-19T17:43:40.955Z,7.55
2022-10-19T17:46:10.567Z,7.82
2022-10-19T17:48:39.090Z,8.13
2022-10-19T17:51:08.246Z,7.57
2022-10-19T17:53:35.104Z,7.90
2022-10-19T17:56:03.943Z,7.13
2022-10-19T17:58:32.586Z,8.30
2022-10-19T18:01:00.606Z,7.68
2022-10-19T18:03:30.619Z,8.68
2022-10-19T18:06:21.967Z,7.80
2022-10-19T18:08:51.411Z,7.88
2022-10-19T18:11:21.123Z,8.05
2022-10-19T18:13:49.133Z,8.05
2022-10-19T18:16:18.976Z,8.60
2022-10-19T18:18:48.637Z,7.65
2022-10-19T18:21:17.865Z,8.13
2022-10-19T18:23:44.721Z,7.25
2022-10-19T18:26:14.391Z,8.55
2022-10-19T18:28:41.601Z,8.32
2022-10-19T18:31:10.759Z,8.85
2022-10-19T18:33:38.466Z,8.70
2022-10-19T18:36:09.875Z,8.75
2022-10-19T18:38:37.035Z,8.25
2022-10-19T18:41:05.759Z,8.23
2022-10-19T18:43:32.992Z,8.38
2022-10-19T18:46:01.057Z,9.57
2022-10-19T18:48:29.689Z,9.32
2022-10-19T18:50:57.365Z,8.10
2022-10-19T18:53:24.453Z,9.85
2022-10-19T18:56:02.743Z,8.27
2022-10-19T18:58:31.024Z,8.55
2022-10-19T19:01:03.636Z,8.93
2022-10-19T19:03:30.461Z,9.05
2022-10-19T19:06:10.061Z,8.77
2022-10-19T19:08:36.864Z,8.20
2022-10-19T19:11:11.454Z,7.95
2022-10-19T19:13:39.025Z,9.48
2022-10-19T19:16:06.336Z,7.72
2022-10-19T19:18:34.180Z,8.52
2022-10-19T19:21:02.002Z,8.88
2022-10-19T19:23:28.588Z,8.43
2022-10-19T19:25:55.776Z,9.00
2022-10-19T19:28:22.473Z,8.63
2022-10-19T19:30:49.024Z,8.40
2022-10-19T19:33:15.635Z,8.73
2022-10-19T19:35:47.064Z,8.23
2022-10-19T19:38:14.901Z,8.73
2022-10-19T19:40:42.948Z,9.60
2022-10-19T19:43:10.467Z,8.57
2022-10-19T19:45:37.585Z,8.27
2022-10-19T19:48:05.938Z,8.45
2022-10-19T19:50:33.213Z,8.85
2022-10-19T19:53:00.130Z,7.38
2022-10-19T19:55:27.904Z,8.93
2022-10-19T19:57:55.132Z,8.30
2022-10-19T20:00:22.826Z,8.38
2022-10-19T20:02:53.777Z,8.18
2022-10-19T20:05:20.732Z,8.65
2022-10-19T20:07:47.633Z,8.80
2022-10-19T20:10:18.035Z,9.82
2022-10-19T20:12:46.644Z,9.02
2022-10-19T20:15:16.226Z,9.27
2022-10-19T20:17:43.526Z,9.02
2022-10-19T20:20:11.917Z,8.43
2022-10-19T20:22:38.695Z,9.38
2022-10-19T20:25:05.860Z,9.75
2022-10-19T20:27:36.258Z,8.60
2022-10-19T20:30:03.729Z,8.60
2022-10-19T20:32:30.468Z,8.95
2022-10-19T20:34:57.127Z,9.07
2022-10-19T20:37:24.355Z,8.23
2022-10-19T20:39:51.186Z,8.98
2022-10-19T20:42:18.853Z,9.35
2022-10-19T20:44:45.686Z,9.75
2022-10-19T20:47:12.228Z,9.75
2022-10-19T20:49:38.817Z,10.32
2022-10-19T20:52:05.368Z,9.73
2022-10-19T20:54:31.981Z,9.50
2022-10-19T20:56:59.490Z,10.02
2022-10-19T20:59:30.376Z,10.18
2022-10-19T21:01:57.889Z,9.60
2022-10-19T21:04:25.698Z,9.30
2022-10-19T21:06:52.888Z,10.70
2022-10-19T21:09:21.784Z,9.77
2022-10-19T21:11:52.779Z,10.32
2022-10-19T21:14:27.221Z,10.30
2022-10-19T21:16:56.885Z,10.07
2022-10-19T21:19:25.442Z,11.32
2022-10-19T21:21:57.785Z,10.80
2022-10-19T21:24:27.691Z,10.05
2022-10-19T21:26:54.283Z,10.65
2022-10-19T21:29:20.933Z,9.98
2022-10-19T21:31:51.809Z,11.15
2022-10-19T21:34:24.061Z,11.73
2022-10-19T21:36:51.014Z,11.63
2022-10-19T21:39:17.907Z,11.23
2022-10-19T21:41:44.816Z,10.82
2022-10-19T21:44:11.853Z,11.30
2022-10-19T21:46:38.449Z,10.82
2022-10-19T21:49:05.066Z,12.13
2022-10-19T21:51:45.826Z,10.98
2022-10-19T21:54:15.514Z,10.07
2022-10-19T21:56:42.848Z,11.38
2022-10-19T21:59:10.482Z,10.88
2022-10-19T22:01:40.198Z,11.82
2022-10-19T22:04:11.952Z,13.18
2022-10-19T22:06:38.785Z,11.63
2022-10-19T22:09:07.404Z,11.52
2022-10-19T22:11:34.485Z,10.85
2022-10-19T22:14:02.620Z,10.13
2022-10-19T22:16:30.165Z,11.63
2022-10-19T22:18:57.301Z,12.05
2022-10-19T22:21:28.096Z,11.45
2022-10-19T22:24:00.501Z,12.05
2022-10-19T22:26:33.335Z,10.98
2022-10-19T22:29:01.189Z,11.40
2022-10-19T22:31:29.889Z,11.02
2022-10-19T22:33:56.745Z,11.25
2022-10-19T22:36:23.322Z,10.43
2022-10-19T22:38:49.969Z,11.25
2022-10-19T22:41:17.113Z,11.18
2022-10-19T22:43:43.692Z,12.02
2022-10-19T22:46:10.272Z,10.10
2022-10-19T22:48:36.994Z,11.40
2022-10-19T22:51:03.743Z,10.68
2022-10-19T22:53:30.330Z,10.82
2022-10-19T22:55:56.893Z,11.68
2022-10-19T22:58:23.452Z,11.00
2022-10-19T23:01:05.098Z,11.30
2022-10-19T23:03:31.681Z,11.02
2022-10-19T23:05:58.497Z,11.20
2022-10-19T23:08:25.884Z,12.43
2022-10-19T23:10:53.016Z,11.98
2022-10-19T23:13:19.589Z,11.63
2022-10-19T23:15:46.238Z,11.40
2022-10-19T23:18:13.057Z,11.88
2022-10-19T23:20:39.681Z,11.40
2022-10-19T23:23:06.390Z,13.15
2022-10-19T23:28:04.478Z,13.45
2022-10-19T23:30:31.057Z,11.30
2022-10-19T23:32:57.595Z,12.23
2022-10-19T23:35:24.179Z,12.55
2022-10-19T23:37:50.729Z,12.60
2022-10-19T23:40:17.305Z,11.40
2022-10-19T23:42:43.941Z,12.15
2022-10-19T23:45:12.859Z,11.55
2022-10-19T23:47:39.408Z,10.90
2022-10-19T23:50:06.377Z,12.48
2022-10-19T23:52:32.985Z,12.50
